createdAt,value
2022-08-03T00:05:11.481Z,1018.01
2022-08-03T00:20:27.454Z,1018.1
2022-08-03T00:35:50.791Z,1018.08
2022-08-03T00:51:01.391Z,1018.11
2022-08-03T01:06:18.393Z,1018.03
2022-08-03T01:21:34.336Z,1017.95
2022-08-03T01:36:50.294Z,1018.04
2022-08-03T01:52:06.305Z,1018.11
2022-08-03T02:07:23.226Z,1018.11
2022-08-03T02:22:39.253Z,1018.04
2022-08-03T02:23:19.065Z,1018.04
2022-08-03T02:37:56.173Z,1018.08
2022-08-03T02:53:13.191Z,1018
2022-08-03T03:08:31.137Z,1018.13
2022-08-03T03:23:48.103Z,1018.05
2022-08-03T03:39:15.955Z,1018.09
2022-08-03T03:54:20.044Z,1018.09
2022-08-03T04:09:37.017Z,1018.17
2022-08-03T04:24:52.982Z,1018.18
2022-08-03T04:40:09.952Z,1018.42
2022-08-03T04:55:44.313Z,1018.57
2022-08-03T05:10:44.885Z,1018.68
2022-08-03T05:26:00.853Z,1018.88
2022-08-03T05:41:20.420Z,1019.06
2022-08-03T05:56:33.771Z,1019.03
2022-08-03T06:11:49.758Z,1019.25
2022-08-03T06:27:06.695Z,1019.12
2022-08-03T06:42:23.687Z,1019.1
2022-08-03T06:57:40.627Z,1019.1
2022-08-03T07:12:57.007Z,1019.15
2022-08-03T07:28:12.560Z,1019.24
2022-08-03T07:43:28.565Z,1019.11
2022-08-03T07:58:45.492Z,1018.98
2022-08-03T08:14:01.484Z,1018.9
2022-08-03T08:29:18.425Z,1018.7
2022-08-03T08:44:35.429Z,1018.74
2022-08-03T08:59:55.728Z,1018.64
2022-08-03T09:15:17.084Z,1018.45
2022-08-03T09:30:33.231Z,1018.42
2022-08-03T09:45:40.298Z,1018.34
2022-08-03T10:00:57.360Z,1018.21
2022-08-03T10:16:22.945Z,1017.95
2022-08-03T10:31:31.170Z,1017.8
2022-08-03T10:46:48.175Z,1017.57
2022-08-03T11:02:05.147Z,1017.32
2022-08-03T11:17:21.076Z,1017.08
2022-08-03T11:32:37.086Z,1016.93
2022-08-03T11:47:53.028Z,1016.61
2022-08-03T12:03:10.070Z,1016.53
2022-08-03T12:18:26.963Z,1016.37
2022-08-03T12:33:43.939Z,1016.18
2022-08-03T12:48:59.999Z,1016.04
2022-08-03T13:04:18.404Z,1015.88
2022-08-03T13:19:32.854Z,1015.76
2022-08-03T13:34:48.840Z,1015.58
2022-08-03T13:50:04.929Z,1015.47
2022-08-03T14:05:21.779Z,1015.32
2022-08-03T14:20:50.330Z,1015.11
2022-08-03T14:35:55.729Z,1015.01
2022-08-03T14:51:11.706Z,1014.79
2022-08-03T15:06:28.682Z,1014.71
2022-08-03T15:21:46.990Z,1014.67
2022-08-03T15:37:00.620Z,1014.6
2022-08-03T15:52:16.621Z,1014.41
2022-08-03T16:07:33.568Z,1014.39
2022-08-03T16:22:50.588Z,1014.29
2022-08-03T16:38:10.402Z,1014.15
2022-08-03T16:53:51.715Z,1014.25
2022-08-03T17:08:40.502Z,1014.17
2022-08-03T17:23:56.471Z,1014.21
2022-08-03T17:39:12.482Z,1014.24
2022-08-03T17:54:28.417Z,1014.33
2022-08-03T18:10:03.526Z,1014.32
2022-08-03T18:25:07.502Z,1014.51
2022-08-03T18:40:20.987Z,1014.58
2022-08-03T18:55:35.763Z,1014.6
2022-08-03T19:11:00.585Z,1014.74
2022-08-03T19:26:30.643Z,1014.82
2022-08-03T19:41:24.210Z,1014.97
2022-08-03T19:56:40.204Z,1015.05
2022-08-03T20:11:58.147Z,1015.31
2022-08-03T20:27:15.084Z,1015.42
2022-08-03T20:42:32.089Z,1015.55
2022-08-03T20:57:49.120Z,1015.65
2022-08-03T21:13:15.880Z,1015.74
2022-08-03T21:28:24.664Z,1015.87
2022-08-03T21:43:36.976Z,1015.96
2022-08-03T21:58:53.927Z,1016.07
2022-08-03T22:14:11.909Z,1016.17
2022-08-03T22:29:28.843Z,1016.46
2022-08-03T22:44:44.849Z,1016.49
2022-08-03T23:00:00.772Z,1016.67
2022-08-03T23:15:17.778Z,1016.9
2022-08-03T23:30:33.704Z,1017.04
2022-08-03T23:45:49.716Z,1017.13
